createdAt,value
2018-11-01T00:00:50.230Z,9.2
2018-11-01T00:02:49.929Z,9.0
2018-11-01T00:04:50.407Z,9.4
2018-11-01T00:06:49.839Z,9.1
2018-11-01T00:08:50.032Z,9.1
2018-11-01T00:10:50.111Z,8.9
2018-11-01T00:12:50.334Z,9.1
2018-11-01T00:14:49.628Z,9.9
2018-11-01T00:16:49.950Z,9.9
2018-11-01T00:18:50.165Z,8.4
2018-11-01T00:20:50.282Z,10.4
2018-11-01T00:22:49.585Z,10.0
2018-11-01T00:24:49.747Z,8.9
2018-11-01T00:26:50.234Z,8.9
2018-11-01T00:28:49.515Z,9.0
2018-11-01T00:30:49.705Z,9.0
2018-11-01T00:32:49.922Z,9.0
2018-11-01T00:34:49.479Z,10.9
2018-11-01T00:36:49.807Z,10.9
2018-11-01T00:38:49.993Z,10.0
2018-11-01T00:40:50.195Z,9.9
2018-11-01T00:42:50.380Z,9.4
2018-11-01T00:44:49.539Z,9.3
2018-11-01T00:46:50.028Z,9.3
2018-11-01T00:48:50.179Z,9.5
2018-11-01T00:50:50.391Z,9.5
2018-11-01T00:52:49.607Z,11.6
2018-11-01T00:54:49.752Z,9.3
2018-11-01T00:56:50.178Z,9.3
2018-11-01T00:58:50.310Z,10.8
2018-11-01T01:00:49.513Z,10.7
2018-11-01T01:02:49.731Z,11.0
2018-11-01T01:04:50.322Z,11.0
2018-11-01T01:06:49.749Z,12.5
2018-11-01T01:08:49.986Z,11.3
2018-11-01T01:10:50.193Z,9.2
2018-11-01T01:12:50.340Z,9.2
2018-11-01T01:14:49.511Z,9.6
2018-11-01T01:16:49.903Z,9.4
2018-11-01T01:18:50.162Z,9.3
2018-11-01T01:20:49.822Z,10.1
2018-11-01T01:22:49.930Z,10.1
2018-11-01T01:24:50.058Z,9.5
2018-11-01T01:26:50.466Z,9.5
2018-11-01T01:28:49.607Z,9.2
2018-11-01T01:30:49.773Z,9.4
2018-11-01T01:32:49.935Z,9.8
2018-11-01T01:34:49.451Z,9.5
2018-11-01T01:36:49.825Z,9.5
2018-11-01T01:38:49.974Z,9.6
2018-11-01T01:40:50.226Z,9.5
2018-11-01T01:42:49.450Z,9.2
2018-11-01T01:44:49.671Z,9.2
2018-11-01T01:46:50.067Z,9.2
2018-11-01T01:48:50.230Z,9.2
2018-11-01T01:50:49.556Z,8.3
2018-11-01T01:52:49.706Z,8.3
2018-11-01T01:54:49.934Z,9.2
2018-11-01T01:56:50.271Z,9.5
2018-11-01T01:58:49.448Z,11.7
2018-11-01T02:00:49.703Z,11.7
2018-11-01T02:02:49.955Z,10.3
2018-11-01T02:04:50.321Z,9.3
2018-11-01T02:06:49.765Z,9.3
2018-11-01T02:08:49.908Z,10.1
2018-11-01T02:10:50.138Z,9.8
2018-11-01T02:12:50.360Z,9.8
2018-11-01T02:14:49.669Z,11.0
2018-11-01T02:16:50.046Z,10.6
2018-11-01T02:18:50.312Z,9.9
2018-11-01T02:20:49.540Z,9.9
2018-11-01T02:22:49.997Z,10.0
2018-11-01T02:24:49.440Z,10.0
2018-11-01T02:26:49.936Z,10.1
2018-11-01T02:28:50.195Z,10.1
2018-11-01T02:30:49.491Z,9.4
2018-11-01T02:32:49.746Z,9.6
2018-11-01T02:34:50.413Z,11.1
2018-11-01T02:36:49.860Z,9.8
2018-11-01T02:38:50.145Z,11.0
2018-11-01T02:40:49.485Z,11.0
2018-11-01T02:42:49.744Z,11.0
2018-11-01T02:44:49.932Z,9.8
2018-11-01T02:46:50.387Z,9.8
2018-11-01T02:48:49.616Z,9.8
2018-11-01T02:50:49.790Z,9.6
2018-11-01T02:52:49.937Z,9.7
2018-11-01T02:54:50.083Z,11.2
2018-11-01T02:56:50.304Z,10.3
2018-11-01T02:58:49.618Z,10.0
2018-11-01T03:00:49.825Z,10.0
2018-11-01T03:02:50.044Z,10.2
2018-11-01T03:04:49.522Z,13.2
2018-11-01T03:06:49.876Z,13.0
2018-11-01T03:08:50.219Z,13.0
2018-11-01T03:10:49.476Z,12.0
2018-11-01T03:12:49.750Z,9.8
2018-11-01T03:14:50.000Z,9.8
2018-11-01T03:16:50.376Z,9.5
2018-11-01T03:18:49.836Z,9.5
2018-11-01T03:20:49.981Z,9.8
2018-11-01T03:22:50.238Z,9.8
2018-11-01T03:24:49.496Z,9.3
2018-11-01T03:26:49.854Z,10.5
2018-11-01T03:28:50.024Z,10.5
2018-11-01T03:30:50.148Z,10.7
2018-11-01T03:32:49.481Z,10.7
2018-11-01T03:34:50.133Z,10.5
2018-11-01T03:36:49.549Z,10.1
2018-11-01T03:38:49.768Z,10.1
2018-11-01T03:40:49.772Z,10.2
2018-11-01T03:42:50.022Z,9.9
2018-11-01T03:44:50.202Z,9.9
2018-11-01T03:46:49.712Z,10.1
2018-11-01T03:48:49.940Z,10.2
2018-11-01T03:50:50.088Z,10.4
2018-11-01T03:52:50.121Z,9.7
2018-11-01T03:54:50.250Z,10.2
2018-11-01T03:56:49.629Z,9.9
2018-11-01T03:58:49.794Z,9.9
2018-11-01T04:00:49.966Z,9.6
2018-11-01T04:02:50.139Z,9.6
2018-11-01T04:04:49.654Z,10.2
2018-11-01T04:06:50.107Z,10.2
2018-11-01T04:08:50.277Z,10.3
2018-11-01T04:10:49.574Z,10.1
2018-11-01T04:12:49.766Z,8.8
2018-11-01T04:14:50.007Z,9.6
2018-11-01T04:16:49.661Z,9.6
2018-11-01T04:18:49.668Z,13.9
2018-11-01T04:20:49.899Z,13.9
2018-11-01T04:22:50.170Z,9.4
2018-11-01T04:24:50.419Z,11.9
2018-11-01T04:26:49.918Z,11.9
2018-11-01T04:28:50.123Z,9.4
2018-11-01T04:30:49.473Z,9.5
2018-11-01T04:32:49.692Z,9.2
2018-11-01T04:34:49.555Z,9.2
2018-11-01T04:36:49.960Z,9.1
2018-11-01T04:38:50.207Z,9.1
2018-11-01T04:40:49.529Z,9.3
2018-11-01T04:42:49.744Z,9.8
2018-11-01T04:44:50.094Z,8.9
2018-11-01T04:46:49.800Z,9.0
2018-11-01T04:48:50.082Z,9.0
2018-11-01T04:50:50.232Z,9.6
2018-11-01T04:52:49.463Z,10.2
2018-11-01T04:54:49.679Z,10.2
2018-11-01T04:56:50.174Z,9.7
2018-11-01T04:58:50.373Z,8.5
2018-11-01T05:00:49.611Z,8.3
2018-11-01T05:02:49.820Z,8.4
2018-11-01T05:04:50.333Z,8.4
2018-11-01T05:06:50.150Z,8.6
2018-11-01T05:08:49.627Z,8.6
2018-11-01T05:10:49.810Z,8.6
2018-11-01T05:12:49.972Z,8.2
2018-11-01T05:14:49.434Z,8.2
2018-11-01T05:16:49.848Z,9.6
2018-11-01T05:18:50.012Z,8.0
2018-11-01T05:20:50.272Z,8.5
2018-11-01T05:22:49.477Z,8.5
2018-11-01T05:24:49.666Z,8.9
2018-11-01T05:26:50.389Z,8.4
2018-11-01T05:28:49.622Z,8.4
2018-11-01T05:30:49.828Z,8.8
2018-11-01T05:32:50.041Z,9.0
2018-11-01T05:34:49.574Z,9.0
2018-11-01T05:36:49.949Z,9.1
2018-11-01T05:38:50.133Z,8.9
2018-11-01T05:40:50.292Z,8.9
2018-11-01T05:42:49.494Z,9.2
2018-11-01T05:44:49.697Z,9.2
2018-11-01T05:46:50.103Z,8.7
2018-11-01T05:48:50.350Z,10.8
2018-11-01T05:50:49.465Z,9.3
2018-11-01T05:52:49.731Z,9.3
2018-11-01T05:54:49.910Z,9.4
2018-11-01T05:56:50.329Z,9.4
2018-11-01T05:58:49.661Z,12.0
2018-11-01T06:00:49.901Z,10.1
2018-11-01T06:02:50.119Z,9.3
2018-11-01T06:04:49.745Z,9.3
2018-11-01T06:06:50.113Z,9.4
2018-11-01T06:08:50.271Z,9.3
2018-11-01T06:10:50.462Z,9.4
2018-11-01T06:12:49.605Z,9.4
2018-11-01T06:14:49.790Z,11.9
2018-11-01T06:16:50.054Z,9.0
2018-11-01T06:18:50.212Z,8.4
2018-11-01T06:20:49.579Z,8.4
2018-11-01T06:22:49.791Z,8.4
2018-11-01T06:24:50.001Z,8.1
2018-11-01T06:26:49.477Z,8.4
2018-11-01T06:28:49.676Z,8.7
2018-11-01T06:30:49.828Z,8.7
2018-11-01T06:32:50.033Z,7.5
2018-11-01T06:34:49.621Z,7.9
2018-11-01T06:36:49.553Z,7.7
2018-11-01T06:38:49.738Z,7.7
2018-11-01T06:40:49.947Z,7.7
2018-11-01T06:42:50.169Z,7.0
2018-11-01T06:44:50.348Z,8.6
2018-11-01T06:46:49.460Z,7.4
2018-11-01T06:48:49.683Z,6.9
2018-11-01T06:50:49.879Z,6.9
2018-11-01T06:52:50.039Z,7.1
2018-11-01T06:54:50.308Z,6.8
2018-11-01T06:56:49.740Z,6.9
2018-11-01T06:58:50.016Z,6.9
2018-11-01T07:00:49.921Z,7.2
2018-11-01T07:02:50.120Z,7.0
2018-11-01T07:04:49.551Z,7.0
2018-11-01T07:06:49.919Z,7.3
2018-11-01T07:08:50.154Z,7.2
2018-11-01T07:10:50.366Z,6.7
2018-11-01T07:12:49.574Z,6.7
2018-11-01T07:14:49.735Z,7.6
2018-11-01T07:16:50.149Z,6.5
2018-11-01T07:18:49.679Z,6.5
2018-11-01T07:20:49.853Z,6.5
2018-11-01T07:22:49.973Z,6.5
2018-11-01T07:24:50.152Z,5.7
2018-11-01T07:26:49.765Z,6.4
2018-11-01T07:28:49.999Z,6.4
2018-11-01T07:30:50.217Z,7.6
2018-11-01T07:32:50.594Z,6.6
2018-11-01T07:34:49.545Z,8.7
2018-11-01T07:36:49.942Z,7.2
2018-11-01T07:38:50.060Z,7.2
2018-11-01T07:40:50.299Z,7.5
2018-11-01T07:42:49.579Z,7.1
2018-11-01T07:44:49.802Z,8.1
2018-11-01T07:46:50.069Z,6.3
2018-11-01T07:48:50.340Z,6.3
2018-11-01T07:50:49.858Z,8.4
2018-11-01T07:52:50.112Z,6.8
2018-11-01T07:54:50.004Z,7.6
2018-11-01T07:56:50.311Z,8.9
2018-11-01T07:58:49.543Z,8.9
2018-11-01T08:00:49.718Z,7.8
2018-11-01T08:02:49.855Z,8.3
2018-11-01T08:04:49.519Z,10.1
2018-11-01T08:06:49.818Z,10.1
2018-11-01T08:08:49.994Z,9.2
2018-11-01T08:10:50.165Z,9.9
2018-11-01T08:12:50.366Z,11.3
2018-11-01T08:14:49.528Z,12.8
2018-11-01T08:16:49.848Z,12.8
2018-11-01T08:18:50.091Z,13.4
2018-11-01T08:20:50.279Z,13.4
2018-11-01T08:22:49.925Z,10.7
2018-11-01T08:24:50.090Z,10.7
2018-11-01T08:26:49.473Z,10.1
2018-11-01T08:28:49.735Z,10.9
2018-11-01T08:30:49.959Z,10.1
2018-11-01T08:32:50.251Z,10.1
2018-11-01T08:34:49.668Z,10.7
2018-11-01T08:36:50.104Z,10.7
2018-11-01T08:38:50.152Z,10.7
2018-11-01T08:40:50.296Z,10.5
2018-11-01T08:42:49.823Z,11.6
2018-11-01T08:44:49.991Z,11.5
2018-11-01T08:46:50.268Z,11.5
2018-11-01T08:48:49.484Z,9.9
2018-11-01T08:50:49.672Z,11.5
2018-11-01T08:52:49.815Z,11.5
2018-11-01T08:54:49.961Z,8.6
2018-11-01T08:56:50.276Z,8.6
2018-11-01T08:58:49.464Z,8.8
2018-11-01T09:00:49.604Z,9.4
2018-11-01T09:02:49.749Z,15.0
2018-11-01T09:04:50.217Z,15.0
2018-11-01T09:06:49.616Z,9.3
2018-11-01T09:08:49.817Z,9.3
2018-11-01T09:10:49.915Z,9.3
2018-11-01T09:12:50.263Z,8.9
2018-11-01T09:14:49.639Z,8.9
2018-11-01T09:16:50.011Z,8.9
2018-11-01T09:18:50.197Z,9.6
2018-11-01T09:20:50.333Z,9.4
2018-11-01T09:22:49.624Z,9.4
2018-11-01T09:24:49.701Z,9.2
2018-11-01T09:26:50.183Z,9.1
2018-11-01T09:28:49.814Z,8.3
2018-11-01T09:30:50.064Z,8.3
2018-11-01T09:32:50.232Z,12.1
2018-11-01T09:34:50.027Z,12.1
2018-11-01T09:36:50.367Z,8.0
2018-11-01T09:38:49.508Z,9.7
2018-11-01T09:40:49.667Z,8.2
2018-11-01T09:42:49.860Z,7.4
2018-11-01T09:44:50.047Z,7.4
2018-11-01T09:46:49.818Z,8.0
2018-11-01T09:48:50.092Z,7.3
2018-11-01T09:50:50.235Z,7.6
2018-11-01T09:52:49.482Z,7.6
2018-11-01T09:54:49.595Z,8.6
2018-11-01T09:56:50.048Z,8.9
2018-11-01T09:58:50.167Z,8.7
2018-11-01T10:00:50.357Z,8.2
2018-11-01T10:02:49.795Z,8.2
2018-11-01T10:04:50.265Z,8.8
2018-11-01T10:06:49.787Z,8.8
2018-11-01T10:08:50.416Z,8.9
2018-11-01T10:10:49.600Z,8.9
2018-11-01T10:12:49.732Z,7.6
2018-11-01T10:14:49.899Z,7.8
2018-11-01T10:16:50.749Z,8.1
2018-11-01T10:18:49.579Z,8.0
2018-11-01T10:20:49.738Z,8.0
2018-11-01T10:22:50.023Z,7.8
2018-11-01T10:24:49.945Z,7.5
2018-11-01T10:26:50.325Z,7.8
2018-11-01T10:28:49.588Z,8.2
2018-11-01T10:30:49.776Z,8.2
2018-11-01T10:32:49.929Z,8.6
2018-11-01T10:34:49.459Z,7.9
2018-11-01T10:36:49.790Z,7.6
2018-11-01T10:38:49.927Z,7.6
2018-11-01T10:40:50.188Z,7.9
2018-11-01T10:42:50.274Z,7.9
2018-11-01T10:44:49.493Z,13.6
2018-11-01T10:46:49.825Z,13.6
2018-11-01T10:48:50.002Z,11.4
2018-11-01T10:50:50.164Z,11.4
2018-11-01T10:52:50.244Z,9.5
2018-11-01T10:54:50.428Z,11.1
2018-11-01T10:56:49.789Z,7.4
2018-11-01T10:58:50.004Z,7.3
2018-11-01T11:00:50.318Z,7.3
2018-11-01T11:02:50.029Z,7.6
2018-11-01T11:04:49.741Z,9.1
2018-11-01T11:06:50.117Z,7.4
2018-11-01T11:08:50.248Z,7.4
2018-11-01T11:10:49.537Z,7.1
2018-11-01T11:12:49.586Z,6.9
2018-11-01T11:14:49.931Z,6.4
2018-11-01T11:16:50.403Z,6.4
2018-11-01T11:18:49.621Z,6.4
2018-11-01T11:20:50.196Z,6.8
2018-11-01T11:22:50.256Z,7.3
2018-11-01T11:24:49.457Z,9.1
2018-11-01T11:26:49.811Z,9.1
2018-11-01T11:28:49.989Z,10.3
2018-11-01T11:30:50.067Z,6.8
2018-11-01T11:32:50.243Z,8.0
2018-11-01T11:34:49.850Z,7.6
2018-11-01T11:36:50.116Z,4.6
2018-11-01T11:38:50.356Z,4.6
2018-11-01T11:40:49.814Z,4.3
2018-11-01T11:42:50.004Z,4.9
2018-11-01T11:44:50.166Z,4.7
2018-11-01T11:46:49.540Z,5.0
2018-11-01T11:48:49.671Z,5.0
2018-11-01T11:50:49.884Z,8.6
2018-11-01T11:52:50.074Z,10.2
2018-11-01T11:54:50.206Z,8.5
2018-11-01T11:56:49.722Z,8.8
2018-11-01T11:58:50.328Z,8.8
2018-11-01T12:00:49.538Z,8.2
2018-11-01T12:02:49.782Z,8.3
2018-11-01T12:04:50.236Z,8.2
2018-11-01T12:06:49.561Z,9.0
2018-11-01T12:08:49.755Z,9.0
2018-11-01T12:10:49.953Z,7.8
2018-11-01T12:12:50.048Z,7.8
2018-11-01T12:14:50.273Z,7.4
2018-11-01T12:16:49.684Z,7.4
2018-11-01T12:18:49.856Z,7.0
2018-11-01T12:20:49.985Z,7.4
2018-11-01T12:22:50.151Z,7.1
2018-11-01T12:24:50.317Z,6.8
2018-11-01T12:26:49.765Z,6.8
2018-11-01T12:28:49.897Z,6.9
2018-11-01T12:30:49.693Z,6.9
2018-11-01T12:32:49.943Z,8.1
2018-11-01T12:34:50.358Z,6.4
2018-11-01T12:36:49.737Z,6.4
2018-11-01T12:38:49.970Z,6.8
2018-11-01T12:40:50.112Z,7.0
2018-11-01T12:42:50.269Z,7.3
2018-11-01T12:44:49.463Z,7.3
2018-11-01T12:46:49.811Z,7.1
2018-11-01T12:48:50.022Z,7.5
2018-11-01T12:50:50.225Z,7.3
2018-11-01T12:52:50.412Z,7.8
2018-11-01T12:54:49.603Z,7.8
2018-11-01T12:56:49.971Z,6.9
2018-11-01T12:58:50.052Z,6.9
2018-11-01T13:00:50.252Z,6.6
2018-11-01T13:02:50.409Z,7.0
2018-11-01T13:04:50.043Z,7.4
2018-11-01T13:06:50.398Z,7.4
2018-11-01T13:08:49.630Z,7.1
2018-11-01T13:10:49.894Z,6.1
2018-11-01T13:12:50.357Z,6.1
2018-11-01T13:14:49.584Z,5.2
2018-11-01T13:16:49.962Z,5.2
2018-11-01T13:18:50.186Z,5.3
2018-11-01T13:20:50.413Z,5.4
2018-11-01T13:22:49.715Z,5.3
2018-11-01T13:24:49.939Z,5.3
2018-11-01T13:26:50.295Z,4.6
2018-11-01T13:28:49.527Z,4.4
2018-11-01T13:30:49.728Z,4.7
2018-11-01T13:32:49.888Z,4.7
2018-11-01T13:34:50.504Z,4.7
2018-11-01T13:36:49.929Z,4.9
2018-11-01T13:38:50.193Z,4.9
2018-11-01T13:40:50.740Z,4.8
2018-11-01T13:42:49.924Z,4.8
2018-11-01T13:44:50.081Z,4.5
2018-11-01T13:46:49.567Z,5.1
2018-11-01T13:48:49.798Z,4.6
2018-11-01T13:50:49.933Z,4.6
2018-11-01T13:52:50.133Z,7.6
2018-11-01T13:54:50.273Z,5.4
2018-11-01T13:56:49.970Z,5.3
2018-11-01T13:58:50.225Z,5.6
2018-11-01T14:00:50.366Z,5.4
2018-11-01T14:02:49.582Z,5.0
2018-11-01T14:04:50.060Z,5.0
2018-11-01T14:06:49.489Z,5.6
2018-11-01T14:08:49.656Z,4.9
2018-11-01T14:10:49.831Z,5.0
2018-11-01T14:12:49.940Z,5.0
2018-11-01T14:14:50.437Z,4.8
2018-11-01T14:16:49.967Z,6.2
2018-11-01T14:18:50.072Z,6.2
2018-11-01T14:20:50.269Z,6.3
2018-11-01T14:22:50.434Z,6.3
2018-11-01T14:24:49.637Z,4.5
2018-11-01T14:26:49.969Z,4.8
2018-11-01T14:28:50.110Z,4.8
2018-11-01T14:30:50.262Z,5.9
2018-11-01T14:32:49.797Z,5.9
2018-11-01T14:34:50.395Z,4.3
2018-11-01T14:36:49.706Z,4.3
2018-11-01T14:38:49.854Z,4.3
2018-11-01T14:40:50.012Z,3.9
2018-11-01T14:42:50.208Z,6.3
2018-11-01T14:44:50.311Z,4.3
2018-11-01T14:46:49.773Z,5.4
2018-11-01T14:48:49.980Z,4.5
2018-11-01T14:50:50.132Z,4.5
2018-11-01T14:52:51.393Z,5.5
2018-11-01T14:54:50.449Z,5.2
2018-11-01T14:56:51.545Z,3.8
2018-11-01T14:58:51.168Z,4.6
2018-11-01T15:00:50.017Z,4.6
2018-11-01T15:02:50.265Z,5.2
2018-11-01T15:04:49.786Z,5.0
2018-11-01T15:06:50.287Z,4.6
2018-11-01T15:08:50.270Z,4.9
2018-11-01T15:10:49.554Z,4.9
2018-11-01T15:12:49.743Z,5.3
2018-11-01T15:14:50.063Z,5.2
2018-11-01T15:16:49.460Z,5.1
2018-11-01T15:18:49.636Z,5.1
2018-11-01T15:20:50.027Z,5.4
2018-11-01T15:22:50.185Z,5.5
2018-11-01T15:24:50.332Z,5.5
2018-11-01T15:26:49.675Z,6.6
2018-11-01T15:28:49.844Z,9.3
2018-11-01T15:30:49.982Z,9.3
2018-11-01T15:32:50.360Z,6.0
2018-11-01T15:34:49.798Z,5.8
2018-11-01T15:36:50.204Z,5.8
2018-11-01T15:38:50.412Z,5.8
2018-11-01T15:40:49.632Z,6.0
2018-11-01T15:42:49.841Z,6.2
2018-11-01T15:44:49.995Z,6.2
2018-11-01T15:46:49.524Z,6.2
2018-11-01T15:48:49.747Z,7.1
2018-11-01T15:50:49.926Z,6.6
2018-11-01T15:52:50.180Z,6.6
2018-11-01T15:54:50.430Z,6.6
2018-11-01T15:56:49.857Z,6.9
2018-11-01T15:58:50.025Z,6.9
2018-11-01T16:00:50.232Z,6.6
2018-11-01T16:02:49.470Z,6.8
2018-11-01T16:04:49.994Z,7.2
2018-11-01T16:06:50.421Z,7.2
2018-11-01T16:08:49.641Z,7.5
2018-11-01T16:10:49.804Z,7.4
2018-11-01T16:12:49.819Z,7.7
2018-11-01T16:14:50.023Z,7.1
2018-11-01T16:16:50.329Z,7.5
2018-11-01T16:18:49.568Z,7.5
2018-11-01T16:20:49.802Z,7.8
2018-11-01T16:22:49.551Z,7.8
2018-11-01T16:24:49.880Z,8.4
2018-11-01T16:26:50.419Z,8.4
2018-11-01T16:28:50.145Z,8.9
2018-11-01T16:30:50.263Z,8.8
2018-11-01T16:32:49.474Z,9.2
2018-11-01T16:34:50.121Z,9.5
2018-11-01T16:36:49.671Z,9.5
2018-11-01T16:38:50.103Z,11.7
2018-11-01T16:40:50.296Z,11.3
2018-11-01T16:42:49.765Z,9.4
2018-11-01T16:44:50.038Z,9.4
2018-11-01T16:46:49.527Z,9.5
2018-11-01T16:48:49.796Z,9.5
2018-11-01T16:50:50.068Z,11.3
2018-11-01T16:52:49.680Z,10.1
2018-11-01T16:54:49.674Z,10.1
2018-11-01T16:56:49.998Z,10.6
2018-11-01T16:58:50.222Z,10.7
2018-11-01T17:00:49.452Z,10.2
2018-11-01T17:02:49.738Z,10.6
2018-11-01T17:04:49.887Z,10.6
2018-11-01T17:06:50.153Z,10.8
2018-11-01T17:08:50.424Z,10.7
2018-11-01T17:10:49.666Z,11.3
2018-11-01T17:12:49.881Z,10.6
2018-11-01T17:14:50.344Z,10.6
2018-11-01T17:16:49.799Z,12.0
2018-11-01T17:18:50.088Z,12.5
2018-11-01T17:20:50.108Z,12.1
2018-11-01T17:22:50.090Z,12.1
2018-11-01T17:24:50.268Z,12.5
2018-11-01T17:26:50.174Z,12.5
2018-11-01T17:28:50.420Z,15.9
2018-11-01T17:30:49.668Z,13.8
2018-11-01T17:32:49.907Z,13.8
2018-11-01T17:34:50.319Z,13.4
2018-11-01T17:36:49.648Z,12.7
2018-11-01T17:38:49.833Z,15.0
2018-11-01T17:40:50.097Z,13.2
2018-11-01T17:42:50.116Z,13.2
2018-11-01T17:44:50.140Z,19.4
2018-11-01T17:46:49.761Z,14.4
2018-11-01T17:48:49.979Z,14.4
2018-11-01T17:50:49.979Z,14.1
2018-11-01T17:52:49.973Z,16.5
2018-11-01T17:54:50.019Z,16.5
2018-11-01T17:56:50.313Z,20.2
2018-11-01T17:58:50.374Z,17.7
2018-11-01T18:00:49.618Z,16.4
2018-11-01T18:02:50.078Z,16.4
2018-11-01T18:04:49.609Z,16.8
2018-11-01T18:06:50.009Z,16.3
2018-11-01T18:08:50.354Z,17.7
2018-11-01T18:10:50.224Z,16.4
2018-11-01T18:12:49.472Z,16.4
2018-11-01T18:14:49.729Z,15.8
2018-11-01T18:16:50.126Z,15.5
2018-11-01T18:18:50.402Z,15.5
2018-11-01T18:20:50.419Z,16.9
2018-11-01T18:22:50.427Z,16.9
2018-11-01T18:24:49.477Z,15.0
2018-11-01T18:26:49.767Z,16.8
2018-11-01T18:28:50.449Z,16.8
2018-11-01T18:30:50.178Z,14.3
2018-11-01T18:32:50.763Z,14.3
2018-11-01T18:34:50.328Z,15.7
2018-11-01T18:36:49.728Z,14.8
2018-11-01T18:38:49.964Z,14.8
2018-11-01T18:40:50.068Z,14.0
2018-11-01T18:42:50.041Z,14.0
2018-11-01T18:44:50.193Z,14.9
2018-11-01T18:46:49.465Z,14.0
2018-11-01T18:48:49.469Z,14.0
2018-11-01T18:50:49.651Z,16.1
2018-11-01T18:52:49.808Z,15.4
2018-11-01T18:54:50.089Z,14.3
2018-11-01T18:56:49.555Z,14.6
2018-11-01T18:58:49.730Z,14.6
2018-11-01T19:00:49.994Z,15.4
2018-11-01T19:02:50.249Z,16.3
2018-11-01T19:04:49.853Z,14.5
2018-11-01T19:06:50.079Z,15.1
2018-11-01T19:08:49.614Z,15.6
2018-11-01T19:10:49.977Z,15.6
2018-11-01T19:12:50.117Z,15.6
2018-11-01T19:14:50.157Z,15.2
2018-11-01T19:16:49.469Z,17.2
2018-11-01T19:18:49.717Z,16.5
2018-11-01T19:20:50.300Z,16.5
2018-11-01T19:22:49.555Z,17.4
2018-11-01T19:24:49.809Z,17.6
2018-11-01T19:26:50.369Z,17.8
2018-11-01T19:28:50.227Z,18.4
2018-11-01T19:30:50.253Z,18.4
2018-11-01T19:32:49.461Z,19.2
2018-11-01T19:34:49.739Z,19.2
2018-11-01T19:36:50.131Z,20.4
2018-11-01T19:38:50.081Z,20.1
2018-11-01T19:40:50.061Z,20.1
2018-11-01T19:42:50.093Z,20.1
2018-11-01T19:44:50.073Z,19.3
2018-11-01T19:46:49.662Z,19.3
2018-11-01T19:48:50.138Z,18.5
2018-11-01T19:50:50.431Z,18.5
2018-11-01T19:52:50.395Z,19.2
2018-11-01T19:54:50.030Z,19.2
2018-11-01T19:56:50.095Z,19.4
2018-11-01T19:58:50.230Z,19.4
2018-11-01T20:00:50.276Z,18.4
2018-11-01T20:02:50.488Z,19.2
2018-11-01T20:04:49.759Z,19.2
2018-11-01T20:06:49.972Z,19.3
2018-11-01T20:08:49.971Z,19.3
2018-11-01T20:10:49.457Z,17.3
2018-11-01T20:12:49.469Z,18.2
2018-11-01T20:14:49.660Z,18.0
2018-11-01T20:16:49.961Z,18.0
2018-11-01T20:18:50.395Z,18.0
2018-11-01T20:20:49.938Z,18.3
2018-11-01T20:22:50.138Z,18.3
2018-11-01T20:24:50.436Z,17.7
2018-11-01T20:26:49.879Z,17.7
2018-11-01T20:28:49.983Z,18.3
2018-11-01T20:30:49.982Z,18.1
2018-11-01T20:32:50.107Z,16.8
2018-11-01T20:34:49.606Z,17.2
2018-11-01T20:36:49.820Z,17.2
2018-11-01T20:38:49.789Z,17.1
2018-11-01T20:40:49.942Z,17.8
2018-11-01T20:42:50.209Z,17.5
2018-11-01T20:44:50.005Z,17.5
2018-11-01T20:46:50.453Z,17.3
2018-11-01T20:48:49.696Z,16.0
2018-11-01T20:50:50.120Z,16.1
2018-11-01T20:52:50.415Z,16.1
2018-11-01T20:54:49.776Z,16.8
2018-11-01T20:56:50.139Z,14.8
2018-11-01T20:58:49.502Z,14.7
2018-11-01T21:00:49.735Z,15.7
2018-11-01T21:02:50.001Z,15.6
2018-11-01T21:04:49.630Z,15.3
2018-11-01T21:06:49.898Z,15.3
2018-11-01T21:08:50.154Z,15.1
2018-11-01T21:10:50.687Z,16.1
2018-11-01T21:12:50.342Z,16.1
2018-11-01T21:14:49.613Z,15.0
2018-11-01T21:16:50.074Z,15.0
2018-11-01T21:18:49.656Z,15.2
2018-11-01T21:20:49.751Z,15.6
2018-11-01T21:22:49.830Z,15.6
2018-11-01T21:24:49.903Z,16.1
2018-11-01T21:26:50.009Z,16.1
2018-11-01T21:28:50.038Z,15.7
2018-11-01T21:30:50.112Z,17.6
2018-11-01T21:32:50.141Z,16.1
2018-11-01T21:34:49.872Z,16.1
2018-11-01T21:36:49.966Z,15.8
2018-11-01T21:38:50.207Z,15.9
2018-11-01T21:40:50.433Z,25.3
2018-11-01T21:42:49.710Z,25.3
2018-11-01T21:44:49.923Z,16.1
2018-11-01T21:46:50.192Z,18.0
2018-11-01T21:48:49.524Z,16.3
2018-11-01T21:50:49.666Z,17.0
2018-11-01T21:52:49.959Z,17.0
2018-11-01T21:54:49.673Z,17.9
2018-11-01T21:56:49.688Z,18.7
2018-11-01T21:58:49.893Z,18.5
2018-11-01T22:00:49.967Z,18.5
2018-11-01T22:02:50.038Z,18.6
2018-11-01T22:04:49.509Z,18.8
2018-11-01T22:06:49.616Z,20.7
2018-11-01T22:08:49.632Z,23.7
2018-11-01T22:10:49.685Z,23.7
2018-11-01T22:12:49.695Z,18.1
2018-11-01T22:14:49.752Z,17.8
2018-11-01T22:16:50.215Z,17.7
2018-11-01T22:18:49.611Z,19.2
2018-11-01T22:20:49.792Z,18.9
2018-11-01T22:22:49.919Z,18.9
2018-11-01T22:24:49.901Z,19.4
2018-11-01T22:26:50.066Z,18.3
2018-11-01T22:28:50.201Z,18.3
2018-11-01T22:30:50.263Z,19.5
2018-11-01T22:32:50.287Z,19.5
2018-11-01T22:34:49.603Z,20.2
2018-11-01T22:36:49.921Z,19.8
2018-11-01T22:38:50.033Z,20.4
2018-11-01T22:40:50.248Z,21.2
2018-11-01T22:42:49.464Z,21.2
2018-11-01T22:44:49.731Z,22.2
2018-11-01T22:46:50.028Z,22.2
2018-11-01T22:48:50.265Z,22.6
2018-11-01T22:50:50.228Z,22.6
2018-11-01T22:52:50.369Z,23.3
2018-11-01T22:54:49.469Z,24.3
2018-11-01T22:56:49.740Z,24.0
2018-11-01T22:58:49.465Z,24.1
2018-11-01T23:00:49.599Z,24.1
2018-11-01T23:02:49.867Z,24.1
2018-11-01T23:04:50.301Z,24.5
2018-11-01T23:06:49.716Z,24.3
2018-11-01T23:08:49.901Z,24.3
2018-11-01T23:10:50.073Z,25.2
2018-11-01T23:12:50.285Z,23.7
2018-11-01T23:14:49.531Z,23.7
2018-11-01T23:16:49.983Z,23.7
2018-11-01T23:18:50.085Z,23.6
2018-11-01T23:20:50.438Z,23.6
2018-11-01T23:22:49.653Z,24.3
2018-11-01T23:24:49.962Z,25.1
2018-11-01T23:26:50.228Z,23.8
2018-11-01T23:28:49.536Z,24.2
2018-11-01T23:30:49.826Z,24.2
2018-11-01T23:32:50.101Z,24.7
2018-11-01T23:34:49.906Z,24.2
2018-11-01T23:36:50.130Z,25.0
2018-11-01T23:38:50.144Z,25.0
2018-11-01T23:40:50.421Z,25.8
2018-11-01T23:42:49.650Z,25.8
2018-11-01T23:44:49.914Z,24.9
2018-11-01T23:46:50.288Z,25.9
2018-11-01T23:48:49.491Z,25.9
2018-11-01T23:50:49.895Z,26.0
2018-11-01T23:52:50.119Z,27.1
2018-11-01T23:54:50.297Z,27.1
2018-11-01T23:56:49.831Z,23.8
2018-11-01T23:58:50.098Z,23.8
